Time;durP1;ratioP1;P1;durP2;ratioP2;P2;SDS_P1;SDS_P2;PMS_P1;PMS_P2;Temp;Humidity;BMP_temperature;BMP_pressure;BME280_temperature;BME280_humidity;BME280_pressure;Samples;Min_cycle;Max_cycle;Signal;HPM_P1;HPM_P2
2021/06/16 00:00:38;;;;;;;4.07;1.92;;;13.30;99.90;;;;;;5054283;28;20049;-72
2021/06/16 00:03:05;;;;;;;1.95;1.75;;;13.30;99.90;;;;;;5054716;28;20045;-72
2021/06/16 00:05:33;;;;;;;2.20;2.00;;;13.20;99.90;;;;;;5054752;28;20075;-72
2021/06/16 00:08:00;;;;;;;3.50;1.63;;;13.10;99.90;;;;;;5054399;28;20048;-72
2021/06/16 00:10:29;;;;;;;4.25;1.88;;;13.10;99.90;;;;;;5054758;28;20068;-72
2021/06/16 00:12:56;;;;;;;1.52;1.40;;;13.10;99.90;;;;;;5054014;28;20098;-72
2021/06/16 00:15:26;;;;;;;3.80;2.25;;;13.00;99.90;;;;;;5054427;28;20045;-71
2021/06/16 00:17:52;;;;;;;3.80;1.67;;;13.00;99.90;;;;;;5054628;28;20040;-73
2021/06/16 00:20:20;;;;;;;2.58;2.05;;;12.90;99.90;;;;;;5054285;28;20091;-73
2021/06/16 00:22:48;;;;;;;2.53;1.75;;;12.90;99.90;;;;;;5054467;28;20045;-72
2021/06/16 00:25:14;;;;;;;3.42;2.53;;;12.90;99.90;;;;;;5054044;28;20058;-73
2021/06/16 00:27:41;;;;;;;3.70;2.22;;;12.90;99.90;;;;;;5053685;28;20099;-73
2021/06/16 00:30:10;;;;;;;3.83;2.13;;;12.90;99.90;;;;;;5053634;28;20045;-73
2021/06/16 00:32:36;;;;;;;2.17;1.98;;;12.90;99.90;;;;;;5054170;28;20045;-72
2021/06/16 00:35:04;;;;;;;2.28;2.08;;;13.00;99.90;;;;;;5054233;28;20053;-72
2021/06/16 00:37:32;;;;;;;4.82;1.95;;;12.80;99.90;;;;;;5053558;28;20094;-72
2021/06/16 00:40:01;;;;;;;2.15;2.03;;;12.70;99.90;;;;;;5053796;28;20045;-72
2021/06/16 00:42:28;;;;;;;2.33;1.88;;;12.80;99.90;;;;;;5053874;28;20107;-72
2021/06/16 00:44:54;;;;;;;2.70;1.88;;;12.80;99.90;;;;;;5053409;28;20485;-72
2021/06/16 00:47:21;;;;;;;2.13;1.92;;;13.00;99.90;;;;;;5053568;28;20458;-72
2021/06/16 00:49:47;;;;;;;2.60;1.80;;;13.00;99.90;;;;;;5053897;28;20041;-72
2021/06/16 00:52:15;;;;;;;4.10;2.08;;;13.00;99.90;;;;;;5053264;28;20481;-72
2021/06/16 00:54:42;;;;;;;5.13;2.10;;;13.00;99.90;;;;;;5053503;28;20098;-72
2021/06/16 00:57:10;;;;;;;3.10;1.80;;;13.10;99.90;;;;;;5052840;28;20554;-72
2021/06/16 00:59:45;;;;;;;2.72;1.63;;;13.00;99.90;;;;;;5054020;28;20049;-72
2021/06/16 01:02:13;;;;;;;2.10;1.90;;;12.90;99.90;;;;;;5053398;28;20076;-73
2021/06/16 01:04:41;;;;;;;2.55;2.00;;;12.90;99.90;;;;;;5053204;28;20041;-72
2021/06/16 01:07:09;;;;;;;2.35;1.85;;;12.80;99.90;;;;;;5053152;28;20053;-72
2021/06/16 01:09:40;;;;;;;2.83;2.13;;;12.90;99.90;;;;;;5053480;28;20041;-71
2021/06/16 01:12:22;;;;;;;4.05;1.90;;;12.60;99.90;;;;;;5053396;28;20112;-71
2021/06/16 01:14:53;;;;;;;3.53;2.25;;;12.30;99.90;;;;;;5053094;28;20067;-71
2021/06/16 01:17:22;;;;;;;5.07;2.50;;;12.10;99.90;;;;;;5052489;28;20126;-71
2021/06/16 01:20:05;;;;;;;2.17;1.70;;;12.10;99.90;;;;;;5053280;28;20341;-70
2021/06/16 01:22:40;;;;;;;3.92;2.25;;;12.10;99.90;;;;;;5053321;28;20040;-71
2021/06/16 01:25:11;;;;;;;5.45;2.10;;;12.10;99.90;;;;;;5052915;28;20524;-71
2021/06/16 01:27:40;;;;;;;3.07;2.77;;;12.20;99.90;;;;;;5052496;28;20469;-71
2021/06/16 01:30:08;;;;;;;2.65;1.73;;;12.20;99.90;;;;;;5052320;28;20357;-71
2021/06/16 01:32:36;;;;;;;5.07;2.38;;;12.30;99.90;;;;;;5051918;28;20045;-71
2021/06/16 01:35:03;;;;;;;3.38;2.28;;;12.20;99.90;;;;;;5053080;28;20048;-71
2021/06/16 01:37:31;;;;;;;6.90;2.08;;;12.20;99.90;;;;;;5052298;28;20079;-72
2021/06/16 01:39:58;;;;;;;2.20;2.00;;;12.30;99.90;;;;;;5052860;28;20056;-72
2021/06/16 01:42:27;;;;;;;2.75;1.90;;;12.30;99.90;;;;;;5052750;28;20485;-71
2021/06/16 01:44:56;;;;;;;3.17;1.67;;;12.30;99.90;;;;;;5052623;28;20090;-71
2021/06/16 01:47:24;;;;;;;3.50;3.05;;;12.20;99.90;;;;;;5052556;28;20071;-72
2021/06/16 01:49:54;;;;;;;3.20;1.80;;;12.20;99.90;;;;;;5032819;28;20468;-72
2021/06/16 01:52:24;;;;;;;2.97;2.00;;;12.20;99.90;;;;;;5042539;28;20041;-72
2021/06/16 01:54:51;;;;;;;3.35;1.80;;;12.10;99.90;;;;;;5051458;28;20044;-72
2021/06/16 01:57:19;;;;;;;7.07;2.33;;;12.00;99.90;;;;;;5052089;28;20048;-72
2021/06/16 01:59:48;;;;;;;2.25;2.05;;;12.00;99.90;;;;;;5052513;28;20076;-73
2021/06/16 02:02:16;;;;;;;6.43;2.42;;;12.00;99.90;;;;;;5052844;28;20098;-72
2021/06/16 02:04:42;;;;;;;3.67;1.98;;;12.00;99.90;;;;;;5052692;28;20052;-71
2021/06/16 02:07:15;;;;;;;2.35;1.73;;;12.00;99.90;;;;;;5052156;28;20095;-71
2021/06/16 02:09:43;;;;;;;3.60;1.80;;;12.00;99.90;;;;;;5052365;28;20130;-72
2021/06/16 02:12:14;;;;;;;1.98;1.88;;;12.00;99.90;;;;;;5052323;28;20110;-72
2021/06/16 02:14:42;;;;;;;3.10;2.38;;;11.90;99.90;;;;;;5052420;28;20044;-71
2021/06/16 02:17:11;;;;;;;3.35;2.35;;;11.80;99.90;;;;;;5051835;28;20409;-71
2021/06/16 02:19:40;;;;;;;4.22;2.70;;;11.70;99.90;;;;;;5052456;28;20040;-71
2021/06/16 02:22:09;;;;;;;3.70;2.50;;;11.60;99.90;;;;;;5052186;28;20401;-74
2021/06/16 02:24:37;;;;;;;3.83;2.08;;;11.60;99.90;;;;;;5051972;28;20099;-72
2021/06/16 02:27:04;;;;;;;2.47;2.03;;;11.60;99.90;;;;;;5051537;28;20503;-71
2021/06/16 02:29:31;;;;;;;4.78;2.55;;;11.60;99.90;;;;;;5052162;28;20049;-71
2021/06/16 02:31:58;;;;;;;3.75;2.50;;;11.40;99.90;;;;;;5051827;28;20041;-71
2021/06/16 02:34:26;;;;;;;3.78;2.45;;;11.40;99.90;;;;;;5052032;28;20075;-71
2021/06/16 02:36:57;;;;;;;4.30;2.20;;;11.30;99.90;;;;;;5051425;28;20094;-72
2021/06/16 02:39:28;;;;;;;3.10;2.67;;;11.30;99.90;;;;;;5051668;28;20547;-72
2021/06/16 02:41:55;;;;;;;15.18;9.38;;;11.40;99.90;;;;;;5051814;28;20079;-71
2021/06/16 02:44:24;;;;;;;18.98;10.85;;;11.40;99.90;;;;;;5055899;28;20094;-71
2021/06/16 02:46:54;;;;;;;28.67;11.20;;;11.30;99.90;;;;;;5057780;28;20435;-71
2021/06/16 02:49:25;;;;;;;21.63;11.85;;;11.30;99.90;;;;;;5058662;28;20108;-71
2021/06/16 02:51:53;;;;;;;22.35;12.73;;;11.30;99.90;;;;;;5058495;28;20049;-71
2021/06/16 02:54:21;;;;;;;19.65;13.05;;;11.40;99.90;;;;;;5058825;28;20049;-72
2021/06/16 02:56:49;;;;;;;16.85;10.02;;;11.50;99.90;;;;;;5058225;28;20554;-72
2021/06/16 02:59:18;;;;;;;3.85;3.40;;;11.40;99.90;;;;;;5058317;28;20045;-72
2021/06/16 03:01:47;;;;;;;35.15;17.48;;;11.20;99.90;;;;;;5057953;28;20045;-72
2021/06/16 03:04:15;;;;;;;10.70;6.55;;;11.00;99.90;;;;;;5058360;28;20098;-72
2021/06/16 03:06:42;;;;;;;32.72;18.60;;;11.10;99.90;;;;;;5058366;28;20106;-70
2021/06/16 03:09:11;;;;;;;27.10;14.18;;;11.20;99.90;;;;;;5058126;28;20048;-72
2021/06/16 03:11:39;;;;;;;30.52;15.48;;;11.40;99.90;;;;;;5058373;28;20045;-71
2021/06/16 03:14:06;;;;;;;17.48;11.30;;;11.50;99.90;;;;;;5058280;28;20049;-71
2021/06/16 03:16:35;;;;;;;11.48;5.25;;;11.50;99.90;;;;;;5058240;28;20044;-72
2021/06/16 03:19:04;;;;;;;20.27;9.48;;;11.50;99.90;;;;;;5058536;28;20049;-71
2021/06/16 03:21:31;;;;;;;25.80;12.07;;;11.30;99.90;;;;;;5058193;28;20041;-71
2021/06/16 03:23:59;;;;;;;29.80;16.95;;;11.40;99.90;;;;;;5038436;28;20049;-72
2021/06/16 03:26:28;;;;;;;3.38;2.95;;;11.50;99.90;;;;;;5045576;28;20414;-72
2021/06/16 03:28:56;;;;;;;20.90;11.43;;;11.50;99.90;;;;;;5058057;28;20158;-72
2021/06/16 03:31:23;;;;;;;21.85;10.90;;;11.30;99.90;;;;;;5057673;28;20044;-71
2021/06/16 03:33:50;;;;;;;34.30;18.20;;;11.40;99.90;;;;;;5058039;28;20098;-72
2021/06/16 03:36:19;;;;;;;29.00;17.10;;;11.40;99.90;;;;;;5058251;28;20118;-71
2021/06/16 03:38:47;;;;;;;4.28;2.85;;;11.60;99.90;;;;;;5058172;28;20479;-71
2021/06/16 03:41:14;;;;;;;12.77;8.68;;;11.70;99.90;;;;;;5058058;28;20451;-71
2021/06/16 03:43:47;;;;;;;8.30;4.50;;;11.60;99.90;;;;;;5058024;28;20045;-71
2021/06/16 03:46:14;;;;;;;43.63;23.80;;;11.60;99.90;;;;;;5057929;28;20041;-71
2021/06/16 03:48:44;;;;;;;8.90;4.20;;;11.70;99.90;;;;;;5058268;28;20102;-71
2021/06/16 03:51:11;;;;;;;13.38;8.48;;;11.90;99.90;;;;;;5057783;28;20484;-71
2021/06/16 03:53:38;;;;;;;6.25;4.03;;;11.90;99.90;;;;;;5057876;28;20075;-71
2021/06/16 03:56:05;;;;;;;20.33;11.88;;;12.00;99.90;;;;;;5054748;28;20041;-72
2021/06/16 03:58:33;;;;;;;5.68;3.20;;;12.10;99.90;;;;;;5054568;28;20448;-71
2021/06/16 04:01:01;;;;;;;4.18;2.92;;;12.20;99.90;;;;;;5054823;28;20041;-72
2021/06/16 04:03:28;;;;;;;13.82;7.45;;;12.20;99.90;;;;;;5055086;28;20045;-72
2021/06/16 04:05:55;;;;;;;4.50;3.95;;;12.30;99.90;;;;;;5054701;28;20111;-71
2021/06/16 04:08:23;;;;;;;7.53;3.35;;;12.40;99.90;;;;;;5054728;28;20041;-72
2021/06/16 04:10:50;;;;;;;3.50;2.65;;;12.50;99.90;;;;;;5054473;28;20123;-72
2021/06/16 04:13:18;;;;;;;4.97;3.45;;;12.60;99.90;;;;;;5054690;28;20041;-72
2021/06/16 04:15:46;;;;;;;13.32;7.95;;;12.70;99.90;;;;;;5054155;28;20049;-72
2021/06/16 04:18:14;;;;;;;11.48;6.35;;;12.80;99.90;;;;;;5054139;28;20063;-72
2021/06/16 04:20:41;;;;;;;10.20;5.65;;;12.90;99.90;;;;;;5054432;28;20099;-71
2021/06/16 04:23:07;;;;;;;3.45;2.90;;;13.00;99.90;;;;;;5054487;28;20492;-72
2021/06/16 04:25:34;;;;;;;8.90;5.53;;;13.10;99.90;;;;;;5053961;28;20103;-72
2021/06/16 04:28:01;;;;;;;13.02;6.97;;;13.30;99.90;;;;;;5054273;28;20090;-72
2021/06/16 04:30:28;;;;;;;6.78;4.05;;;13.40;99.90;;;;;;5054109;28;20049;-72
2021/06/16 04:32:54;;;;;;;13.27;6.30;;;13.50;99.90;;;;;;5054447;28;20499;-71
2021/06/16 04:35:23;;;;;;;7.07;4.45;;;13.70;99.90;;;;;;5053914;28;20041;-72
2021/06/16 04:37:50;;;;;;;4.32;2.75;;;13.70;99.90;;;;;;5054122;28;20057;-72
2021/06/16 04:40:17;;;;;;;4.75;2.75;;;13.80;99.90;;;;;;5053647;28;20048;-72
2021/06/16 04:42:44;;;;;;;3.80;3.38;;;13.90;99.90;;;;;;5054238;28;20434;-73
2021/06/16 04:45:11;;;;;;;2.95;2.53;;;14.00;99.90;;;;;;5053745;28;20037;-72
2021/06/16 04:47:38;;;;;;;3.88;2.45;;;14.10;99.90;;;;;;5049814;28;20185;-71
2021/06/16 04:50:07;;;;;;;4.32;2.67;;;14.20;99.90;;;;;;5053471;28;21630;-72
2021/06/16 04:52:35;;;;;;;8.20;4.90;;;14.40;99.90;;;;;;5053489;28;20053;-70
2021/06/16 04:55:01;;;;;;;2.65;2.05;;;14.40;99.90;;;;;;5052768;28;20049;-71
2021/06/16 04:57:28;;;;;;;5.22;3.03;;;14.50;99.90;;;;;;5052058;28;20087;-69
2021/06/16 04:59:55;;;;;;;6.15;3.70;;;14.60;99.90;;;;;;5053039;28;20053;-71
2021/06/16 05:02:21;;;;;;;2.45;2.00;;;14.70;99.90;;;;;;5053047;28;20570;-70
2021/06/16 05:04:48;;;;;;;4.70;3.40;;;14.80;99.90;;;;;;5053501;28;20049;-70
2021/06/16 05:07:14;;;;;;;1.85;1.75;;;15.00;99.90;;;;;;5051332;28;20496;-69
2021/06/16 05:09:42;;;;;;;3.75;1.27;;;15.10;99.90;;;;;;5052983;28;20041;-70
2021/06/16 05:12:10;;;;;;;4.05;1.90;;;15.20;99.90;;;;;;5053162;28;20067;-69
2021/06/16 05:14:37;;;;;;;3.60;1.85;;;15.30;99.90;;;;;;5054509;28;20041;-69
2021/06/16 05:17:04;;;;;;;17.13;8.95;;;15.40;99.90;;;;;;5052811;28;20049;-69
2021/06/16 05:19:33;;;;;;;7.65;4.55;;;15.50;99.90;;;;;;5053755;28;20049;-70
2021/06/16 05:22:06;;;;;;;6.82;3.92;;;15.60;99.90;;;;;;5053468;28;20045;-72
2021/06/16 05:24:33;;;;;;;7.88;5.75;;;15.70;99.90;;;;;;5053232;28;20045;-72
2021/06/16 05:27:01;;;;;;;7.80;5.20;;;15.80;99.90;;;;;;5052529;28;20057;-71
2021/06/16 05:29:39;;;;;;;5.07;3.10;;;16.00;99.90;;;;;;5054110;28;20041;-75
2021/06/16 05:32:06;;;;;;;8.05;4.35;;;16.10;99.90;;;;;;5052672;28;20041;-68
2021/06/16 05:34:48;;;;;;;7.22;4.53;;;16.20;99.90;;;;;;5053020;28;20045;-70
2021/06/16 05:37:15;;;;;;;8.32;4.65;;;16.30;99.90;;;;;;5055330;28;20048;-68
2021/06/16 05:39:42;;;;;;;1.73;1.60;;;16.30;99.90;;;;;;5057861;28;20110;-75
2021/06/16 05:42:10;;;;;;;3.72;2.17;;;16.50;99.90;;;;;;5058295;28;20049;-72
2021/06/16 05:44:37;;;;;;;10.52;5.30;;;16.50;99.90;;;;;;5053932;28;20053;-73
2021/06/16 05:47:05;;;;;;;1.85;1.75;;;16.60;99.90;;;;;;5010402;28;20114;-72
2021/06/16 05:49:32;;;;;;;5.38;2.65;;;16.80;99.90;;;;;;5052514;28;20063;-73
2021/06/16 05:51:59;;;;;;;6.28;2.53;;;16.90;99.90;;;;;;5054255;28;20045;-72
2021/06/16 05:54:25;;;;;;;5.05;2.15;;;17.10;99.90;;;;;;5053746;28;20041;-71
2021/06/16 05:56:52;;;;;;;5.03;2.85;;;17.20;99.90;;;;;;5054203;28;20071;-71
2021/06/16 05:59:20;;;;;;;3.75;2.58;;;17.50;99.90;;;;;;5054153;28;20102;-67
2021/06/16 06:01:47;;;;;;;6.05;3.83;;;17.80;99.90;;;;;;5054022;28;20091;-71
2021/06/16 06:04:13;;;;;;;3.08;2.38;;;18.10;99.90;;;;;;5054297;28;20106;-72
2021/06/16 06:06:40;;;;;;;2.40;2.08;;;18.40;99.90;;;;;;5054255;28;20118;-71
2021/06/16 06:09:09;;;;;;;4.97;3.22;;;18.60;99.90;;;;;;5053995;28;20087;-72
2021/06/16 06:11:36;;;;;;;5.47;2.30;;;18.90;99.90;;;;;;5054623;28;20390;-71
2021/06/16 06:14:04;;;;;;;2.55;1.67;;;19.10;98.70;;;;;;5054410;28;20115;-72
2021/06/16 06:16:32;;;;;;;3.03;1.65;;;19.20;96.10;;;;;;5053939;28;20048;-71
2021/06/16 06:18:59;;;;;;;5.18;2.10;;;19.30;95.10;;;;;;5053367;28;20045;-72
2021/06/16 06:21:30;;;;;;;3.30;2.25;;;19.70;93.80;;;;;;5054331;28;20102;-71
2021/06/16 06:23:56;;;;;;;1.88;1.50;;;20.10;93.10;;;;;;5058232;28;20037;-70
2021/06/16 06:26:23;;;;;;;1.90;1.58;;;20.30;91.30;;;;;;5062303;28;20044;-70
2021/06/16 06:28:50;;;;;;;5.53;2.35;;;20.10;90.30;;;;;;5049512;28;20130;-69
2021/06/16 06:31:16;;;;;;;7.80;3.80;;;20.50;90.60;;;;;;5056373;28;20045;-70
2021/06/16 06:33:44;;;;;;;5.10;3.28;;;20.70;89.40;;;;;;5053277;28;20045;-69
2021/06/16 06:36:11;;;;;;;1.52;1.40;;;20.80;86.10;;;;;;5052236;28;20056;-68
2021/06/16 06:38:37;;;;;;;4.03;2.15;;;20.90;85.10;;;;;;5051686;28;20052;-67
2021/06/16 06:41:04;;;;;;;3.72;1.83;;;21.30;84.70;;;;;;5051534;28;20166;-67
2021/06/16 06:43:31;;;;;;;5.63;1.30;;;21.90;83.70;;;;;;5052033;28;20421;-69
2021/06/16 06:45:57;;;;;;;6.30;2.80;;;22.00;81.30;;;;;;5049975;28;20041;-69
2021/06/16 06:48:24;;;;;;;3.30;2.83;;;22.40;79.00;;;;;;5051947;28;20052;-69
2021/06/16 06:50:53;;;;;;;3.35;2.30;;;22.80;77.30;;;;;;5052092;28;20129;-70
2021/06/16 06:53:21;;;;;;;8.98;3.30;;;23.10;75.80;;;;;;5052073;28;20045;-69
2021/06/16 06:55:48;;;;;;;2.97;1.85;;;23.20;73.60;;;;;;5051455;28;20052;-70
2021/06/16 06:58:15;;;;;;;4.97;2.47;;;23.30;72.80;;;;;;5029157;28;20060;-71
2021/06/16 07:00:41;;;;;;;2.53;1.30;;;23.60;72.50;;;;;;5025702;28;20052;-72
2021/06/16 07:03:08;;;;;;;2.05;1.60;;;23.60;70.80;;;;;;5052474;28;20076;-71
2021/06/16 07:05:35;;;;;;;4.10;1.77;;;23.90;69.60;;;;;;5056130;28;20045;-75
2021/06/16 07:08:03;;;;;;;6.72;1.20;;;24.20;67.20;;;;;;5052267;28;20044;-70
2021/06/16 07:10:30;;;;;;;2.22;2.00;;;24.10;64.50;;;;;;5051844;28;20075;-70
2021/06/16 07:12:56;;;;;;;1.77;1.67;;;24.50;65.40;;;;;;5055555;28;20542;-72
2021/06/16 07:15:24;;;;;;;2.72;1.23;;;24.80;64.00;;;;;;5051774;28;20122;-72
2021/06/16 07:17:50;;;;;;;3.95;1.30;;;24.80;62.10;;;;;;5052054;28;20055;-74
2021/06/16 07:20:17;;;;;;;2.97;1.42;;;24.80;62.70;;;;;;5051574;28;20053;-71
2021/06/16 07:22:44;;;;;;;0.98;0.98;;;25.20;61.50;;;;;;5051296;28;20041;-73
2021/06/16 07:25:12;;;;;;;1.40;0.77;;;25.00;61.40;;;;;;5052284;28;20102;-70
2021/06/16 07:27:40;;;;;;;1.30;1.20;;;25.10;61.20;;;;;;5051597;28;20049;-72
2021/06/16 07:30:08;;;;;;;4.78;1.90;;;24.60;61.10;;;;;;5052180;28;20095;-73
2021/06/16 07:32:36;;;;;;;1.05;0.82;;;25.50;61.90;;;;;;5056181;28;20094;-71
2021/06/16 07:35:03;;;;;;;1.50;1.40;;;26.40;60.00;;;;;;5055347;28;20048;-74
2021/06/16 07:37:30;;;;;;;2.08;0.93;;;27.10;58.00;;;;;;5055891;28;20049;-73
2021/06/16 07:39:57;;;;;;;3.10;1.10;;;26.50;56.10;;;;;;5055811;28;20044;-73
2021/06/16 07:42:25;;;;;;;3.58;1.30;;;26.30;57.70;;;;;;5055604;28;20593;-69
2021/06/16 07:44:52;;;;;;;3.33;1.20;;;26.60;57.70;;;;;;5066497;28;20079;-70
2021/06/16 07:47:18;;;;;;;0.70;0.70;;;26.90;57.80;;;;;;5055088;28;20052;-70
2021/06/16 07:49:45;;;;;;;4.22;3.00;;;27.00;56.60;;;;;;5055123;28;20122;-71
2021/06/16 07:52:12;;;;;;;2.67;1.30;;;27.00;56.70;;;;;;5054963;28;20111;-68
2021/06/16 07:54:38;;;;;;;1.05;0.95;;;27.40;56.30;;;;;;5054900;28;20098;-69
2021/06/16 07:57:05;;;;;;;1.40;1.30;;;27.90;55.40;;;;;;5054641;28;20536;-67
2021/06/16 07:59:33;;;;;;;1.67;1.58;;;28.30;55.20;;;;;;5054925;28;20053;-72
2021/06/16 08:02:00;;;;;;;5.00;1.40;;;28.40;53.60;;;;;;5054157;28;20044;-70
2021/06/16 08:04:27;;;;;;;1.77;1.67;;;28.50;53.50;;;;;;5054613;28;20564;-71
2021/06/16 08:06:53;;;;;;;2.95;1.33;;;28.40;53.90;;;;;;5054211;28;20045;-70
2021/06/16 08:09:20;;;;;;;1.60;1.30;;;28.50;53.30;;;;;;5054017;28;20074;-72
2021/06/16 08:11:46;;;;;;;3.97;1.10;;;27.90;53.20;;;;;;5054129;28;20045;-72
2021/06/16 08:14:13;;;;;;;3.40;2.58;;;27.80;54.20;;;;;;5054935;28;20049;-74
2021/06/16 08:16:41;;;;;;;3.35;2.25;;;28.00;53.70;;;;;;5054453;28;20045;-71
2021/06/16 08:19:08;;;;;;;2.22;1.65;;;28.70;52.90;;;;;;5054778;28;20099;-75
2021/06/16 08:21:34;;;;;;;1.85;1.50;;;28.60;52.80;;;;;;5054265;28;20052;-68
2021/06/16 08:24:01;;;;;;;2.15;1.20;;;28.80;52.60;;;;;;5054865;28;20061;-71
2021/06/16 08:26:29;;;;;;;1.88;1.60;;;28.60;52.10;;;;;;5054428;28;20045;-73
2021/06/16 08:28:55;;;;;;;3.58;1.60;;;28.40;53.10;;;;;;5054480;28;20509;-74
2021/06/16 08:31:24;;;;;;;5.30;1.80;;;29.40;52.20;;;;;;5054234;28;20053;-72
2021/06/16 08:33:52;;;;;;;4.50;3.45;;;29.70;51.00;;;;;;5054127;28;20471;-69
2021/06/16 08:36:20;;;;;;;3.28;2.03;;;30.50;49.70;;;;;;5054305;28;20048;-71
2021/06/16 08:38:46;;;;;;;2.67;1.85;;;30.70;49.90;;;;;;5053959;28;20148;-71
2021/06/16 08:41:13;;;;;;;1.90;1.50;;;31.50;50.00;;;;;;5053316;28;20071;-74
2021/06/16 08:43:42;;;;;;;1.30;1.20;;;31.60;47.90;;;;;;5053820;28;20394;-73
2021/06/16 08:46:10;;;;;;;4.05;1.45;;;30.80;47.10;;;;;;5053960;28;20048;-75
2021/06/16 08:48:37;;;;;;;2.25;1.80;;;30.00;48.40;;;;;;5054936;28;20041;-75
2021/06/16 08:51:06;;;;;;;3.30;1.60;;;30.00;49.80;;;;;;5057288;28;20040;-73
2021/06/16 08:53:34;;;;;;;3.55;1.30;;;30.70;49.20;;;;;;5054812;28;20076;-71
2021/06/16 08:56:01;;;;;;;1.45;1.35;;;30.40;48.10;;;;;;5053679;28;20041;-72
2021/06/16 08:58:28;;;;;;;4.65;4.00;;;30.40;48.20;;;;;;5054221;28;20048;-72
2021/06/16 09:00:55;;;;;;;7.90;3.38;;;31.00;48.50;;;;;;5053863;28;20044;-74
2021/06/16 09:03:21;;;;;;;2.92;1.50;;;31.50;47.60;;;;;;5053883;28;20052;-73
2021/06/16 09:05:51;;;;;;;4.57;2.55;;;31.50;47.40;;;;;;5053488;28;20045;-72
2021/06/16 09:08:22;;;;;;;2.13;1.20;;;30.80;48.00;;;;;;5054078;28;20095;-72
2021/06/16 09:10:50;;;;;;;1.15;1.02;;;29.60;47.90;;;;;;5054432;28;20084;-71
2021/06/16 09:13:26;;;;;;;2.35;1.95;;;29.40;50.50;;;;;;5054187;28;20041;-73
2021/06/16 09:15:54;;;;;;;2.08;1.88;;;30.50;48.90;;;;;;5054352;28;20053;-75
2021/06/16 09:18:21;;;;;;;2.88;1.92;;;30.80;47.70;;;;;;5053765;28;20412;-73
2021/06/16 09:20:49;;;;;;;6.03;2.17;;;30.80;48.40;;;;;;5022473;28;20049;-70
2021/06/16 09:23:20;;;;;;;2.63;2.28;;;31.20;47.10;;;;;;5070851;28;20049;-71
2021/06/16 09:26:08;;;;;;;3.10;2.25;;;31.80;47.10;;;;;;5052811;28;20106;-71
2021/06/16 09:28:36;;;;;;;2.30;1.90;;;31.90;45.80;;;;;;5034391;28;20048;-70
2021/06/16 09:31:04;;;;;;;2.60;2.35;;;32.00;45.20;;;;;;5058691;28;20041;-70
2021/06/16 09:33:31;;;;;;;4.22;1.35;;;31.90;45.40;;;;;;5054007;28;20049;-71
2021/06/16 09:35:57;;;;;;;4.05;2.17;;;31.70;45.10;;;;;;5051945;28;20044;-73
2021/06/16 09:38:27;;;;;;;3.03;1.95;;;32.20;45.10;;;;;;5012440;28;20045;-72
2021/06/16 09:40:57;;;;;;;4.07;1.70;;;32.50;44.80;;;;;;5067627;28;20064;-73
2021/06/16 09:43:24;;;;;;;4.22;3.28;;;32.90;43.80;;;;;;5053517;28;20568;-72
2021/06/16 09:45:55;;;;;;;2.00;1.20;;;32.80;44.40;;;;;;5053401;28;20072;-74
2021/06/16 09:48:26;;;;;;;7.60;6.22;;;32.20;44.00;;;;;;5053356;28;20057;-71
2021/06/16 09:50:54;;;;;;;5.90;1.92;;;32.00;44.70;;;;;;5053598;28;20409;-71
2021/06/16 09:53:21;;;;;;;2.40;1.45;;;32.60;44.50;;;;;;5053010;28;20049;-71
2021/06/16 09:55:48;;;;;;;5.82;3.03;;;32.40;43.40;;;;;;5053540;28;20045;-70
2021/06/16 09:58:17;;;;;;;6.68;3.28;;;32.80;43.60;;;;;;5055565;28;20494;-70
2021/06/16 10:00:47;;;;;;;3.83;1.48;;;33.80;42.80;;;;;;5055343;28;20053;-72
2021/06/16 10:03:17;;;;;;;1.98;1.80;;;34.00;41.40;;;;;;5053725;28;20078;-70
2021/06/16 10:06:04;;;;;;;3.72;2.45;;;33.70;41.70;;;;;;5053348;28;20049;-71
2021/06/16 10:08:31;;;;;;;3.72;2.45;;;34.10;41.70;;;;;;5057954;28;20049;-71
2021/06/16 10:10:59;;;;;;;3.55;2.60;;;34.40;41.20;;;;;;5054250;28;20048;-71
2021/06/16 10:13:27;;;;;;;3.85;2.20;;;34.40;41.20;;;;;;5053548;28;20091;-71
2021/06/16 10:15:54;;;;;;;5.22;2.90;;;34.70;40.40;;;;;;5053158;28;20492;-72
2021/06/16 10:18:22;;;;;;;3.40;3.08;;;35.20;40.00;;;;;;5053057;28;20448;-72
2021/06/16 10:20:49;;;;;;;3.88;2.30;;;35.60;39.80;;;;;;5052917;28;20132;-71
2021/06/16 10:23:16;;;;;;;4.97;3.67;;;35.30;40.40;;;;;;5052659;28;20045;-71
2021/06/16 10:25:43;;;;;;;2.80;1.50;;;35.50;40.40;;;;;;4999993;28;20111;-71
2021/06/16 10:28:11;;;;;;;2.25;1.30;;;35.70;39.60;;;;;;5051003;28;20102;-69
2021/06/16 10:30:42;;;;;;;3.35;2.45;;;35.50;39.00;;;;;;5062989;28;20431;-69
2021/06/16 10:33:29;;;;;;;8.07;5.53;;;33.90;41.20;;;;;;5054414;28;20489;-70
2021/06/16 10:36:10;;;;;;;2.40;2.17;;;34.10;40.70;;;;;;5051742;28;20412;-69
2021/06/16 10:38:38;;;;;;;1.50;1.40;;;34.20;41.30;;;;;;5051971;28;20102;-70
2021/06/16 10:41:05;;;;;;;2.42;2.13;;;33.50;40.70;;;;;;5052869;28;20049;-69
2021/06/16 10:43:32;;;;;;;1.20;1.10;;;32.60;40.10;;;;;;5052494;28;20099;-69
2021/06/16 10:46:08;;;;;;;1.45;1.20;;;32.00;41.10;;;;;;5052959;28;20432;-70
2021/06/16 10:48:51;;;;;;;2.85;1.50;;;31.70;42.00;;;;;;5053309;28;20440;-69
2021/06/16 10:51:44;;;;;;;3.92;2.58;;;32.00;42.40;;;;;;5052809;28;20045;-70
2021/06/16 10:54:17;;;;;;;4.13;3.72;;;33.10;42.30;;;;;;5052859;28;20489;-70
2021/06/16 10:56:46;;;;;;;4.10;2.20;;;34.50;40.90;;;;;;5052556;28;20553;-70
2021/06/16 10:59:12;;;;;;;1.40;1.30;;;34.90;39.70;;;;;;5052652;28;20045;-69
2021/06/16 11:01:48;;;;;;;5.30;3.05;;;33.70;39.40;;;;;;5052346;28;20041;-69
2021/06/16 11:04:30;;;;;;;6.30;4.50;;;34.00;42.00;;;;;;5053066;28;20049;-69
2021/06/16 11:06:57;;;;;;;2.15;1.42;;;35.10;40.20;;;;;;5053870;28;20106;-70
2021/06/16 11:09:47;;;;;;;6.05;5.53;;;35.20;37.90;;;;;;5055718;28;20110;-68
2021/06/16 11:12:14;;;;;;;2.78;1.98;;;35.60;39.30;;;;;;5056249;28;20079;-70
2021/06/16 11:14:46;;;;;;;4.47;2.67;;;36.10;38.20;;;;;;5055464;28;20037;-69
2021/06/16 11:17:42;;;;;;;4.10;3.70;;;36.30;37.70;;;;;;5055399;28;20048;-70
2021/06/16 11:20:11;;;;;;;7.65;2.75;;;36.10;37.70;;;;;;5044881;28;20044;-68
2021/06/16 11:22:56;;;;;;;4.47;2.03;;;35.50;38.30;;;;;;5055769;28;20076;-70
2021/06/16 11:25:28;;;;;;;4.13;3.75;;;35.70;38.70;;;;;;5055524;28;20045;-69
2021/06/16 11:28:07;;;;;;;4.38;3.67;;;36.00;38.40;;;;;;5056079;28;20470;-70
2021/06/16 11:30:36;;;;;;;2.58;2.35;;;36.40;38.30;;;;;;5055650;28;20067;-67
2021/06/16 11:33:34;;;;;;;3.10;2.77;;;36.00;37.50;;;;;;5055748;28;20052;-71
2021/06/16 11:36:04;;;;;;;2.42;2.05;;;36.00;37.60;;;;;;5055517;28;20141;-73
2021/06/16 11:38:33;;;;;;;3.90;2.17;;;36.10;37.90;;;;;;5055708;28;20566;-70
2021/06/16 11:41:23;;;;;;;7.38;2.38;;;35.60;37.80;;;;;;5055684;28;20496;-69
2021/06/16 11:43:51;;;;;;;1.88;1.13;;;35.40;39.10;;;;;;5055925;28;20481;-69
2021/06/16 11:46:25;;;;;;;3.30;2.05;;;35.90;37.70;;;;;;5056078;28;20049;-69
2021/06/16 11:49:01;;;;;;;2.72;2.20;;;35.70;38.30;;;;;;5055594;28;20052;-68
2021/06/16 11:51:32;;;;;;;2.33;2.08;;;35.60;38.20;;;;;;5055016;28;20048;-70
2021/06/16 11:54:22;;;;;;;3.08;2.20;;;36.00;37.90;;;;;;5055460;28;20110;-70
2021/06/16 11:56:51;;;;;;;3.15;2.78;;;36.20;37.30;;;;;;5055563;28;20056;-70
2021/06/16 11:59:30;;;;;;;3.42;1.67;;;36.30;38.30;;;;;;5055738;28;20041;-69
2021/06/16 12:02:05;;;;;;;2.80;1.30;;;34.70;38.20;;;;;;5056266;28;20807;-70
2021/06/16 12:04:45;;;;;;;3.60;3.30;;;35.30;38.70;;;;;;5056888;28;20050;-70
2021/06/16 12:07:12;;;;;;;2.53;1.77;;;35.80;38.10;;;;;;5056623;28;20079;-69
2021/06/16 12:09:44;;;;;;;2.10;1.95;;;36.00;38.00;;;;;;5055325;28;20086;-70
2021/06/16 12:12:11;;;;;;;1.85;1.70;;;35.60;38.30;;;;;;5055591;28;20531;-70
2021/06/16 12:14:38;;;;;;;3.10;2.28;;;35.70;37.80;;;;;;5054796;28;20045;-71
2021/06/16 12:17:05;;;;;;;2.88;2.05;;;35.40;38.70;;;;;;5053998;28;20126;-69
2021/06/16 12:19:34;;;;;;;2.42;2.22;;;35.40;39.10;;;;;;5054450;28;20041;-70
2021/06/16 12:22:04;;;;;;;4.88;3.97;;;35.40;38.80;;;;;;5054471;28;20053;-70
2021/06/16 12:24:33;;;;;;;3.25;2.42;;;35.80;38.60;;;;;;5054683;28;20084;-68
2021/06/16 12:27:04;;;;;;;1.80;1.58;;;36.00;37.50;;;;;;5054199;28;20037;-67
2021/06/16 12:29:31;;;;;;;;;;;35.90;38.00;;;;;;5055287;28;20052;-69
2021/06/16 12:32:01;;;;;;;2.60;1.85;;;35.80;37.70;;;;;;5054192;28;19920;-70
2021/06/16 12:34:33;;;;;;;;;;;35.80;38.20;;;;;;5055396;28;20550;-69
2021/06/16 12:37:10;;;;;;;1.88;1.27;;;35.20;38.30;;;;;;5054426;28;19921;-69
2021/06/16 12:39:51;;;;;;;1.65;1.55;;;35.30;38.70;;;;;;5054597;28;20049;-69
2021/06/16 12:42:18;;;;;;;2.05;1.90;;;36.00;38.30;;;;;;5054058;28;20053;-73
2021/06/16 12:44:45;;;;;;;3.83;2.13;;;36.40;38.20;;;;;;5054084;28;20049;-72
2021/06/16 12:47:12;;;;;;;4.18;2.10;;;36.60;37.60;;;;;;5053629;28;20075;-74
2021/06/16 12:49:48;;;;;;;1.38;1.27;;;36.50;37.10;;;;;;5053464;28;20171;-71
2021/06/16 12:52:28;;;;;;;3.33;2.67;;;35.10;38.10;;;;;;5046376;28;20052;-70
2021/06/16 12:54:55;;;;;;;1.98;1.83;;;35.30;38.40;;;;;;5053993;28;20060;-72